Time;durP1;ratioP1;P1;durP2;ratioP2;P2;SDS_P1;SDS_P2;PMS_P1;PMS_P2;Temp;Humidity;BMP_temperature;BMP_pressure;BME280_temperature;BME280_humidity;BME280_pressure;Samples;Min_cycle;Max_cycle;Signal;HPM_P1;HPM_P2
2021/12/26 00:02:29;;;;;;;60.60;19.75;;;;;;;;;;8451524;28;20054;-75
2021/12/26 00:06:33;;;;;;;22.83;13.32;;;;;;;;;;8430687;28;20051;-74
2021/12/26 00:10:36;;;;;;;19.13;12.02;;;;;;;;;;8438969;28;20040;-78
2021/12/26 00:14:40;;;;;;;7.05;6.35;;;;;;;;;;8465414;28;20151;-76
2021/12/26 00:18:45;;;;;;;21.90;13.88;;;;;;;;;;8447935;28;20056;-75
2021/12/26 00:22:50;;;;;;;64.03;26.33;;;;;;;;;;8446115;28;20071;-75
2021/12/26 00:26:53;;;;;;;39.90;19.73;;;;;;;;;;8456431;28;20112;-74
2021/12/26 00:30:57;;;;;;;13.27;9.57;;;;;;;;;;8465416;28;20126;-76
2021/12/26 00:35:00;;;;;;;24.77;11.10;;;;;;;;;;8465532;28;20050;-76
2021/12/26 00:39:05;;;;;;;37.83;13.40;;;;;;;;;;8465515;28;20498;-75
2021/12/26 00:43:09;;;;;;;92.53;35.92;;;;;;;;;;8465163;28;20043;-75
2021/12/26 00:47:13;;;;;;;92.13;33.38;;;;;;;;;;8467825;28;20040;-74
2021/12/26 00:51:22;;;;;;;149.38;60.97;;;;;;;;;;8467747;28;20102;-74
2021/12/26 00:55:28;;;;;;;23.27;13.07;;;;;;;;;;8447950;28;20097;-76
2021/12/26 00:59:34;;;;;;;19.25;8.50;;;;;;;;;;8461946;28;20410;-76
2021/12/26 01:03:37;;;;;;;13.10;10.63;;;;;;;;;;8466906;28;20055;-75
2021/12/26 01:07:51;;;;;;;24.70;11.80;;;;;;;;;;8467806;28;20047;-75
2021/12/26 01:12:00;;;;;;;10.65;9.48;;;;;;;;;;8467250;28;20149;-76
2021/12/26 01:16:06;;;;;;;28.50;9.75;;;;;;;;;;8467076;28;20074;-75
2021/12/26 01:20:15;;;;;;;14.80;8.18;;;;;;;;;;8466211;28;20529;-75
2021/12/26 01:24:18;;;;;;;15.90;6.55;;;;;;;;;;8432865;28;20094;-76
2021/12/26 01:28:28;;;;;;;13.18;7.00;;;;;;;;;;8451181;28;20096;-74
2021/12/26 01:32:33;;;;;;;17.55;9.88;;;;;;;;;;8466495;28;20054;-75
2021/12/26 01:36:36;;;;;;;18.55;13.05;;;;;;;;;;8466103;28;20044;-76
2021/12/26 01:40:41;;;;;;;16.15;9.60;;;;;;;;;;8466199;28;20039;-74
2021/12/26 01:44:45;;;;;;;22.83;12.77;;;;;;;;;;8466172;28;20564;-74
2021/12/26 01:48:48;;;;;;;27.02;11.07;;;;;;;;;;8466000;28;20050;-74
2021/12/26 01:52:50;;;;;;;7.90;4.60;;;;;;;;;;8465858;28;20043;-75
2021/12/26 01:56:55;;;;;;;16.52;8.70;;;;;;;;;;8439330;28;20053;-72
2021/12/26 02:01:02;;;;;;;9.13;7.32;;;;;;;;;;8465525;28;20047;-81
2021/12/26 02:05:05;;;;;;;9.23;7.18;;;;;;;;;;8398212;28;20055;-75
2021/12/26 02:09:12;;;;;;;28.30;5.40;;;;;;;;;;8398156;28;20102;-74
2021/12/26 02:13:16;;;;;;;20.50;6.25;;;;;;;;;;8397980;28;20123;-75
2021/12/26 02:17:20;;;;;;;11.52;5.88;;;;;;;;;;8397841;28;20044;-76
2021/12/26 02:21:39;;;;;;;23.17;7.32;;;;;;;;;;8385297;28;20045;-79
2021/12/26 02:30:06;;;;;;;26.98;8.35;;;;;;;;;;8398050;28;20052;-74
2021/12/26 02:34:09;;;;;;;17.52;7.57;;;;;;;;;;8397021;28;20094;-74
2021/12/26 02:38:14;;;;;;;19.00;10.95;;;;;;;;;;8397293;28;20484;-73
2021/12/26 02:42:19;;;;;;;13.52;9.45;;;;;;;;;;8397148;28;20048;-74
2021/12/26 02:46:22;;;;;;;10.70;5.63;;;;;;;;;;8396648;28;20044;-74
2021/12/26 02:50:27;;;;;;;16.05;8.30;;;;;;;;;;8397044;28;20084;-77
2021/12/26 02:54:31;;;;;;;11.75;6.47;;;;;;;;;;8382054;28;20041;-74
2021/12/26 02:58:34;;;;;;;7.07;5.50;;;;;;;;;;8397050;28;20041;-77
2021/12/26 03:02:40;;;;;;;9.00;5.70;;;;;;;;;;8422628;28;20044;-78
2021/12/26 03:06:51;;;;;;;26.33;4.72;;;;;;;;;;8456269;28;20043;-75
2021/12/26 03:10:56;;;;;;;10.70;6.95;;;;;;;;;;8446990;28;20602;-76
2021/12/26 03:14:59;;;;;;;16.63;10.40;;;;;;;;;;8448467;28;20050;-77
2021/12/26 03:19:02;;;;;;;16.63;6.07;;;;;;;;;;8463246;28;20382;-74
2021/12/26 03:23:06;;;;;;;9.30;5.50;;;;;;;;;;8453366;28;20051;-83
2021/12/26 03:27:13;;;;;;;4.53;3.97;;;;;;;;;;8429863;28;20052;-76
2021/12/26 03:31:16;;;;;;;12.23;3.67;;;;;;;;;;8430204;28;20076;-78
2021/12/26 03:35:19;;;;;;;7.07;4.13;;;;;;;;;;8430361;28;20119;-83
2021/12/26 03:39:22;;;;;;;25.95;12.82;;;;;;;;;;8429871;28;20048;-74
2021/12/26 03:43:26;;;;;;;14.23;7.45;;;;;;;;;;8451656;28;20502;-76
2021/12/26 03:47:29;;;;;;;18.58;7.60;;;;;;;;;;8470323;28;20047;-77
2021/12/26 03:51:33;;;;;;;10.45;6.70;;;;;;;;;;8468447;28;20083;-79
2021/12/26 03:55:36;;;;;;;10.88;5.72;;;;;;;;;;8469679;28;20051;-79
2021/12/26 03:59:40;;;;;;;4.97;4.47;;;;;;;;;;8469672;28;20043;-83
2021/12/26 04:03:42;;;;;;;5.57;4.30;;;;;;;;;;8469477;28;20522;-76
2021/12/26 04:07:45;;;;;;;16.20;8.13;;;;;;;;;;8469775;28;20550;-77
2021/12/26 04:11:48;;;;;;;10.07;4.88;;;;;;;;;;8469421;28;20044;-77
2021/12/26 04:15:52;;;;;;;5.03;4.53;;;;;;;;;;8465413;28;20043;-75
2021/12/26 04:19:54;;;;;;;8.18;6.13;;;;;;;;;;8469406;28;20043;-75
2021/12/26 04:23:57;;;;;;;27.67;6.18;;;;;;;;;;8469177;28;20063;-74
2021/12/26 04:28:00;;;;;;;5.97;3.22;;;;;;;;;;8469034;28;20429;-76
2021/12/26 04:32:05;;;;;;;24.13;4.95;;;;;;;;;;8468944;28;20047;-75
2021/12/26 04:36:08;;;;;;;3.17;2.95;;;;;;;;;;8468408;28;20044;-74
2021/12/26 04:40:14;;;;;;;25.33;5.45;;;;;;;;;;8468276;28;20119;-81
2021/12/26 04:44:16;;;;;;;4.68;4.22;;;;;;;;;;8447601;28;20086;-74
2021/12/26 04:48:20;;;;;;;8.82;5.10;;;;;;;;;;8434120;28;20048;-74
2021/12/26 04:52:23;;;;;;;9.23;4.25;;;;;;;;;;8434110;28;20064;-81
2021/12/26 04:56:26;;;;;;;7.18;4.07;;;;;;;;;;8433783;28;20055;-78
2021/12/26 05:00:30;;;;;;;9.20;5.88;;;;;;;;;;8434851;28;20063;-75
2021/12/26 05:04:35;;;;;;;11.50;5.43;;;;;;;;;;8456975;28;20056;-81
2021/12/26 05:08:38;;;;;;;5.43;3.88;;;;;;;;;;8467571;28;20092;-76
2021/12/26 05:12:41;;;;;;;13.00;3.97;;;;;;;;;;8467637;28;20376;-77
2021/12/26 05:16:43;;;;;;;5.68;3.95;;;;;;;;;;8467547;28;20055;-77
2021/12/26 05:20:47;;;;;;;6.30;4.72;;;;;;;;;;8466946;28;20096;-75
2021/12/26 05:24:50;;;;;;;6.57;5.07;;;;;;;;;;8467293;28;20086;-75
2021/12/26 05:28:53;;;;;;;5.35;4.85;;;;;;;;;;8467209;28;20144;-81
2021/12/26 05:32:55;;;;;;;13.63;5.95;;;;;;;;;;8465112;28;20051;-74
2021/12/26 05:36:59;;;;;;;7.32;4.10;;;;;;;;;;8466891;28;20044;-76
2021/12/26 05:41:02;;;;;;;10.23;5.32;;;;;;;;;;8466301;28;20044;-74
2021/12/26 05:45:07;;;;;;;4.35;3.65;;;;;;;;;;8462808;28;20051;-83
2021/12/26 05:49:09;;;;;;;7.20;4.28;;;;;;;;;;8452898;28;20479;-75
2021/12/26 05:53:14;;;;;;;9.63;5.15;;;;;;;;;;8465229;28;20040;-76
2021/12/26 05:57:16;;;;;;;4.80;4.47;;;;;;;;;;8465869;28;20418;-77
2021/12/26 06:01:19;;;;;;;8.30;5.28;;;;;;;;;;8440189;28;20060;-76
2021/12/26 06:05:22;;;;;;;18.33;5.63;;;;;;;;;;8461347;28;20044;-78
2021/12/26 06:09:26;;;;;;;4.32;3.90;;;;;;;;;;8465511;28;20483;-77
2021/12/26 06:13:29;;;;;;;10.88;5.90;;;;;;;;;;8465804;28;20043;-76
2021/12/26 06:17:32;;;;;;;11.35;4.75;;;;;;;;;;8465072;28;20054;-77
2021/12/26 06:21:35;;;;;;;3.08;2.88;;;;;;;;;;8465143;28;20051;-77
2021/12/26 06:25:39;;;;;;;7.65;6.15;;;;;;;;;;8465407;28;20115;-77
2021/12/26 06:29:41;;;;;;;4.30;3.65;;;;;;;;;;8465330;28;20483;-77
2021/12/26 06:33:44;;;;;;;3.22;2.67;;;;;;;;;;8460339;28;20040;-76
2021/12/26 06:37:47;;;;;;;8.77;6.18;;;;;;;;;;8464829;28;20138;-77
2021/12/26 06:41:51;;;;;;;24.08;6.38;;;;;;;;;;8462521;28;20048;-77
2021/12/26 06:45:54;;;;;;;11.05;4.18;;;;;;;;;;8455453;28;20043;-80
2021/12/26 06:49:57;;;;;;;4.47;3.50;;;;;;;;;;8461052;28;20127;-76
2021/12/26 06:53:59;;;;;;;2.58;2.30;;;;;;;;;;8463908;28;20043;-76
2021/12/26 06:58:04;;;;;;;9.38;8.10;;;;;;;;;;8464560;28;20040;-76
2021/12/26 07:02:06;;;;;;;20.23;10.13;;;;;;;;;;8462757;28;20044;-75
2021/12/26 07:06:09;;;;;;;10.57;8.25;;;;;;;;;;8442475;28;20070;-74
2021/12/26 07:10:12;;;;;;;7.97;6.72;;;;;;;;;;8434669;28;20044;-75
2021/12/26 07:14:16;;;;;;;23.17;10.45;;;;;;;;;;8449806;28;20051;-74
2021/12/26 07:18:19;;;;;;;15.77;9.63;;;;;;;;;;8451149;28;20050;-76
2021/12/26 07:22:22;;;;;;;10.88;6.80;;;;;;;;;;8452974;28;20048;-75
2021/12/26 07:26:24;;;;;;;22.27;8.38;;;;;;;;;;8437219;28;20052;-76
2021/12/26 07:30:29;;;;;;;15.68;8.75;;;;;;;;;;8437406;28;20109;-77
2021/12/26 07:34:31;;;;;;;35.65;14.95;;;;;;;;;;8447075;28;20089;-75
2021/12/26 07:38:35;;;;;;;20.58;12.93;;;;;;;;;;8452265;28;20043;-77
2021/12/26 07:42:38;;;;;;;23.13;10.95;;;;;;;;;;8466795;28;20047;-77
2021/12/26 07:46:42;;;;;;;15.68;9.35;;;;;;;;;;8470489;28;20047;-75
2021/12/26 07:50:45;;;;;;;16.45;8.18;;;;;;;;;;8469847;28;20054;-76
2021/12/26 07:54:48;;;;;;;8.75;4.93;;;;;;;;;;8470369;28;20048;-76
2021/12/26 07:58:50;;;;;;;10.55;5.75;;;;;;;;;;8469699;28;20054;-77
2021/12/26 08:02:55;;;;;;;21.40;9.07;;;;;;;;;;8443869;28;20056;-76
2021/12/26 08:06:59;;;;;;;16.58;8.82;;;;;;;;;;8435268;28;20135;-76
2021/12/26 08:11:01;;;;;;;16.88;8.38;;;;;;;;;;8435554;28;20145;-77
2021/12/26 08:15:05;;;;;;;15.45;9.23;;;;;;;;;;8435378;28;20048;-77
2021/12/26 08:19:10;;;;;;;26.35;12.25;;;;;;;;;;8435367;28;20471;-77
2021/12/26 08:23:12;;;;;;;21.50;7.70;;;;;;;;;;8435246;28;20122;-77
2021/12/26 08:27:16;;;;;;;10.35;8.63;;;;;;;;;;8434860;28;20131;-77
2021/12/26 08:31:20;;;;;;;20.23;8.13;;;;;;;;;;8459906;28;20049;-77
2021/12/26 08:35:26;;;;;;;17.50;9.52;;;;;;;;;;8467222;28;20163;-77
2021/12/26 08:39:30;;;;;;;41.88;17.73;;;;;;;;;;8467174;28;20403;-78
2021/12/26 08:43:34;;;;;;;28.52;12.70;;;;;;;;;;8466947;28;20051;-77
2021/12/26 08:47:36;;;;;;;26.25;9.60;;;;;;;;;;8466256;28;20047;-82
2021/12/26 08:51:42;;;;;;;48.10;17.60;;;;;;;;;;8466858;28;20047;-77
2021/12/26 08:55:45;;;;;;;28.98;13.02;;;;;;;;;;8467734;28;20042;-77
2021/12/26 08:59:48;;;;;;;20.05;10.27;;;;;;;;;;8466703;28;20052;-81
2021/12/26 09:03:51;;;;;;;78.65;30.27;;;;;;;;;;8467393;28;20079;-77
2021/12/26 09:07:55;;;;;;;81.93;34.85;;;;;;;;;;8467241;28;20050;-77
2021/12/26 09:11:59;;;;;;;34.78;15.95;;;;;;;;;;8462894;28;20047;-76
2021/12/26 09:16:03;;;;;;;73.50;28.15;;;;;;;;;;8439638;28;20052;-77
2021/12/26 09:20:08;;;;;;;49.85;21.65;;;;;;;;;;8449517;28;20399;-74
2021/12/26 09:24:14;;;;;;;82.35;34.05;;;;;;;;;;8444459;28;20040;-79
2021/12/26 09:28:16;;;;;;;50.92;19.02;;;;;;;;;;8431431;28;20040;-76
2021/12/26 09:32:20;;;;;;;43.65;18.33;;;;;;;;;;8450988;28;20089;-77
2021/12/26 09:36:22;;;;;;;45.00;18.75;;;;;;;;;;8461746;28;20101;-77
2021/12/26 09:40:27;;;;;;;66.70;25.48;;;;;;;;;;8461798;28;20044;-76
2021/12/26 09:44:32;;;;;;;86.53;32.60;;;;;;;;;;8460966;28;20096;-77
2021/12/26 09:48:36;;;;;;;78.55;26.58;;;;;;;;;;8460567;28;20052;-76
2021/12/26 09:52:49;;;;;;;53.30;20.67;;;;;;;;;;8461644;28;20048;-77
2021/12/26 09:56:59;;;;;;;42.50;17.08;;;;;;;;;;8461641;28;20130;-76
2021/12/26 10:01:03;;;;;;;53.30;17.83;;;;;;;;;;8462097;28;20440;-76
2021/12/26 10:05:12;;;;;;;42.95;16.23;;;;;;;;;;8459969;28;20062;-76
2021/12/26 10:09:21;;;;;;;45.67;18.80;;;;;;;;;;8459227;28;20047;-78
2021/12/26 10:13:54;;;;;;;56.92;23.02;;;;;;;;;;8444743;28;20044;-77
2021/12/26 10:18:39;;;;;;;63.42;22.02;;;;;;;;;;8463445;28;20050;-78
2021/12/26 10:22:48;;;;;;;47.13;18.42;;;;;;;;;;8464010;28;20077;-77
2021/12/26 10:26:57;;;;;;;56.50;18.58;;;;;;;;;;8451379;28;20444;-81
2021/12/26 10:31:20;;;;;;;32.58;11.45;;;;;;;;;;8453641;28;20121;-79
2021/12/26 10:35:26;;;;;;;39.25;14.15;;;;;;;;;;8442102;28;20489;-78
2021/12/26 10:39:36;;;;;;;33.92;14.38;;;;;;;;;;8435523;28;20035;-79
2021/12/26 10:43:53;;;;;;;38.28;14.88;;;;;;;;;;8452901;28;20048;-82
2021/12/26 10:48:05;;;;;;;35.28;14.00;;;;;;;;;;8453511;28;20044;-81
2021/12/26 10:52:21;;;;;;;43.00;15.25;;;;;;;;;;8435591;28;20510;-78
2021/12/26 10:56:25;;;;;;;47.67;18.85;;;;;;;;;;8444655;28;20027;-81
2021/12/26 11:00:37;;;;;;;53.75;19.73;;;;;;;;;;8463811;28;20043;-77
2021/12/26 11:05:00;;;;;;;80.15;21.30;;;;;;;;;;8456663;28;20479;-80
2021/12/26 11:09:20;;;;;;;65.78;20.48;;;;;;;;;;8441738;28;20086;-77
2021/12/26 11:13:40;;;;;;;48.75;18.33;;;;;;;;;;8448632;28;20044;-78
2021/12/26 11:17:54;;;;;;;52.10;19.95;;;;;;;;;;8457606;28;20150;-81
2021/12/26 11:22:11;;;;;;;46.53;20.70;;;;;;;;;;8455341;28;20479;-80
2021/12/26 11:26:25;;;;;;;40.38;16.70;;;;;;;;;;8444080;28;20075;-81
2021/12/26 11:30:35;;;;;;;57.55;21.23;;;;;;;;;;8440911;28;20138;-79
2021/12/26 11:34:47;;;;;;;46.83;18.40;;;;;;;;;;8447781;28;20044;-82
2021/12/26 11:39:08;;;;;;;40.17;15.38;;;;;;;;;;8443393;28;20118;-77
2021/12/26 11:44:00;;;;;;;31.98;12.13;;;;;;;;;;8447043;28;20049;-79
2021/12/26 11:48:40;;;;;;;38.75;13.55;;;;;;;;;;8431461;28;20134;-81
2021/12/26 11:53:09;;;;;;;34.90;13.20;;;;;;;;;;8417491;28;20060;-80
2021/12/26 11:57:29;;;;;;;35.65;14.10;;;;;;;;;;8428937;28;20048;-81
2021/12/26 12:01:34;;;;;;;34.65;13.63;;;;;;;;;;8438777;28;20056;-81
2021/12/26 12:05:40;;;;;;;29.77;12.18;;;;;;;;;;8444640;28;20049;-81
2021/12/26 12:09:46;;;;;;;32.53;11.77;;;;;;;;;;8447551;28;20062;-81
2021/12/26 12:13:54;;;;;;;33.30;12.13;;;;;;;;;;8453538;28;20479;-81
2021/12/26 12:18:10;;;;;;;31.00;13.90;;;;;;;;;;8453939;28;20043;-81
2021/12/26 12:22:14;;;;;;;53.70;20.77;;;;;;;;;;8465396;28;20498;-80
2021/12/26 12:26:39;;;;;;;42.30;16.95;;;;;;;;;;8449525;28;20048;-80
2021/12/26 12:30:48;;;;;;;317.15;108.13;;;;;;;;;;8455244;28;20043;-81
2021/12/26 12:34:58;;;;;;;61.53;25.83;;;;;;;;;;8434134;28;20464;-80
2021/12/26 12:39:17;;;;;;;57.20;20.13;;;;;;;;;;8434254;28;20047;-81
2021/12/26 12:43:22;;;;;;;49.80;18.67;;;;;;;;;;8434143;28;20070;-80
2021/12/26 12:47:27;;;;;;;103.32;32.17;;;;;;;;;;8433870;28;20040;-79
2021/12/26 12:51:44;;;;;;;58.42;19.90;;;;;;;;;;8433735;28;20082;-80
2021/12/26 12:55:53;;;;;;;47.15;16.58;;;;;;;;;;8433492;28;20044;-81
2021/12/26 13:00:03;;;;;;;62.10;19.88;;;;;;;;;;8433656;28;20040;-82
2021/12/26 13:04:11;;;;;;;55.13;18.58;;;;;;;;;;8451758;28;20067;-81
2021/12/26 13:08:20;;;;;;;40.63;18.27;;;;;;;;;;8459700;28;20543;-80
2021/12/26 13:12:32;;;;;;;43.70;16.63;;;;;;;;;;8457473;28;20048;-80
2021/12/26 13:16:56;;;;;;;47.90;17.90;;;;;;;;;;8464421;28;20048;-79
2021/12/26 13:21:25;;;;;;;57.30;18.27;;;;;;;;;;8448088;28;20506;-80
2021/12/26 13:25:51;;;;;;;74.18;22.27;;;;;;;;;;8442237;28;20088;-81
2021/12/26 13:30:16;;;;;;;74.18;24.80;;;;;;;;;;8448129;28;20047;-79
2021/12/26 13:34:31;;;;;;;45.63;20.63;;;;;;;;;;8448897;28;20444;-80
2021/12/26 13:38:53;;;;;;;42.72;13.90;;;;;;;;;;8465947;28;20050;-80
2021/12/26 13:43:07;;;;;;;35.30;13.82;;;;;;;;;;8466281;28;20062;-81
2021/12/26 13:47:16;;;;;;;30.98;12.57;;;;;;;;;;8466047;28;20044;-80
2021/12/26 13:51:30;;;;;;;29.08;10.32;;;;;;;;;;8466650;28;20051;-79
2021/12/26 13:55:53;;;;;;;34.00;11.25;;;;;;;;;;8466760;28;20127;-79
2021/12/26 14:00:05;;;;;;;21.70;8.98;;;;;;;;;;8467171;28;20078;-81
2021/12/26 14:04:17;;;;;;;25.75;9.85;;;;;;;;;;8466199;28;20051;-80
2021/12/26 14:08:28;;;;;;;24.75;9.05;;;;;;;;;;8446406;28;20055;-79
2021/12/26 14:12:49;;;;;;;26.17;8.75;;;;;;;;;;8465873;28;20050;-79
2021/12/26 14:16:59;;;;;;;23.48;7.68;;;;;;;;;;8465889;28;20060;-81
2021/12/26 14:21:15;;;;;;;26.17;8.73;;;;;;;;;;8465772;28;20059;-79
2021/12/26 14:25:29;;;;;;;17.13;8.23;;;;;;;;;;8457924;28;20514;-80
2021/12/26 14:29:43;;;;;;;24.77;9.95;;;;;;;;;;8453096;28;20043;-78
2021/12/26 14:33:51;;;;;;;21.77;9.00;;;;;;;;;;8463703;28;20392;-80
2021/12/26 14:38:11;;;;;;;44.72;19.17;;;;;;;;;;8457403;28;20497;-79
2021/12/26 14:42:19;;;;;;;75.82;27.83;;;;;;;;;;8445481;28;20040;-77
2021/12/26 14:46:25;;;;;;;78.38;31.48;;;;;;;;;;8463711;28;20051;-79
2021/12/26 14:50:30;;;;;;;60.88;25.65;;;;;;;;;;8464861;28;20566;-79
2021/12/26 14:54:42;;;;;;;61.63;19.63;;;;;;;;;;8462257;28;20043;-82
2021/12/26 14:58:49;;;;;;;47.85;16.95;;;;;;;;;;8464532;28;20043;-81
2021/12/26 15:02:57;;;;;;;39.85;18.52;;;;;;;;;;8463546;28;20052;-78
2021/12/26 15:07:07;;;;;;;35.75;11.70;;;;;;;;;;8464036;28;20100;-78
2021/12/26 15:11:11;;;;;;;31.13;14.25;;;;;;;;;;8451592;28;20075;-79
2021/12/26 15:15:22;;;;;;;42.50;15.65;;;;;;;;;;8458301;28;20772;-79
2021/12/26 15:19:40;;;;;;;36.27;15.07;;;;;;;;;;8461877;28;20058;-80
2021/12/26 15:24:08;;;;;;;29.85;12.60;;;;;;;;;;8465910;28;20060;-79
2021/12/26 15:28:16;;;;;;;44.25;14.38;;;;;;;;;;8483219;28;20491;-79
2021/12/26 15:32:21;;;;;;;27.40;13.38;;;;;;;;;;8479854;28;20290;-80
2021/12/26 15:36:32;;;;;;;38.92;17.15;;;;;;;;;;8463759;28;20134;-80
2021/12/26 15:40:41;;;;;;;21.03;11.53;;;;;;;;;;8444135;28;20050;-77
2021/12/26 15:44:45;;;;;;;25.73;13.32;;;;;;;;;;8466657;28;20321;-79
2021/12/26 15:48:49;;;;;;;30.25;14.48;;;;;;;;;;8467402;28;20052;-78
2021/12/26 15:52:56;;;;;;;56.22;20.90;;;;;;;;;;8469193;28;20130;-78
2021/12/26 15:57:01;;;;;;;53.42;13.98;;;;;;;;;;8467780;28;20043;-79
2021/12/26 16:01:06;;;;;;;28.92;15.63;;;;;;;;;;8461905;28;20039;-78
2021/12/26 16:05:10;;;;;;;440.83;144.85;;;;;;;;;;8475898;28;20143;-80
2021/12/26 16:09:15;;;;;;;34.20;15.32;;;;;;;;;;8490189;28;20043;-79
2021/12/26 16:13:18;;;;;;;12.75;7.03;;;;;;;;;;8483685;28;20048;-79
2021/12/26 16:17:21;;;;;;;49.22;18.73;;;;;;;;;;8484235;28;20042;-79
2021/12/26 16:21:24;;;;;;;109.20;45.17;;;;;;;;;;8472074;28;20467;-81
2021/12/26 16:25:29;;;;;;;56.22;21.27;;;;;;;;;;8463123;28;20039;-81
2021/12/26 16:29:32;;;;;;;34.65;10.20;;;;;;;;;;8468399;28;20069;-80
2021/12/26 16:33:36;;;;;;;25.98;10.27;;;;;;;;;;8467950;28;20051;-80
2021/12/26 16:37:41;;;;;;;26.02;9.18;;;;;;;;;;8467629;28;20063;-79
2021/12/26 16:41:46;;;;;;;33.40;11.77;;;;;;;;;;8467980;28;20055;-78
2021/12/26 16:45:53;;;;;;;33.63;16.13;;;;;;;;;;8467313;28;20131;-80
2021/12/26 16:49:57;;;;;;;20.83;10.35;;;;;;;;;;8466337;28;20486;-79
2021/12/26 16:54:03;;;;;;;27.05;9.82;;;;;;;;;;8465316;28;20048;-78
2021/12/26 16:58:10;;;;;;;17.85;6.82;;;;;;;;;;8466798;28;20040;-80
2021/12/26 17:02:13;;;;;;;21.65;8.35;;;;;;;;;;8464040;28;20048;-78
2021/12/26 17:06:18;;;;;;;23.88;9.02;;;;;;;;;;8463836;28;20040;-78
2021/12/26 17:10:21;;;;;;;23.85;11.32;;;;;;;;;;8463702;28;20036;-79
2021/12/26 17:14:28;;;;;;;25.02;9.27;;;;;;;;;;8460708;28;20044;-79
2021/12/26 17:18:30;;;;;;;18.38;11.07;;;;;;;;;;8465105;28;20035;-78
2021/12/26 17:22:35;;;;;;;18.75;10.52;;;;;;;;;;8454921;28;20193;-79
2021/12/26 17:26:38;;;;;;;15.90;9.32;;;;;;;;;;8455057;28;20048;-79
2021/12/26 17:30:43;;;;;;;95.63;22.67;;;;;;;;;;8471043;28;20048;-79
2021/12/26 17:34:47;;;;;;;28.85;11.80;;;;;;;;;;8488535;28;20050;-79
2021/12/26 17:38:50;;;;;;;30.08;10.07;;;;;;;;;;8477666;28;20048;-79
2021/12/26 17:42:53;;;;;;;41.28;16.48;;;;;;;;;;8476977;28;20122;-78
2021/12/26 17:46:57;;;;;;;45.47;18.00;;;;;;;;;;8478902;28;20059;-79
2021/12/26 17:51:02;;;;;;;14.57;11.40;;;;;;;;;;8449745;28;20085;-77
2021/12/26 17:55:07;;;;;;;31.17;12.55;;;;;;;;;;8465642;28;20050;-79
2021/12/26 17:59:10;;;;;;;18.40;10.18;;;;;;;;;;8461796;28;20108;-79
2021/12/26 18:03:15;;;;;;;43.28;17.05;;;;;;;;;;8461697;28;20491;-80
2021/12/26 18:07:18;;;;;;;22.85;10.57;;;;;;;;;;8466245;28;20490;-78
2021/12/26 18:11:26;;;;;;;28.55;13.02;;;;;;;;;;8465355;28;20055;-78
2021/12/26 18:15:31;;;;;;;36.33;14.32;;;;;;;;;;8446705;28;20067;-79
2021/12/26 18:19:36;;;;;;;45.75;17.35;;;;;;;;;;8465539;28;20044;-79
2021/12/26 18:23:40;;;;;;;56.17;24.13;;;;;;;;;;8464808;28;20043;-79
2021/12/26 18:27:43;;;;;;;38.85;13.57;;;;;;;;;;8464496;28;20050;-79
2021/12/26 18:31:47;;;;;;;24.38;9.40;;;;;;;;;;8464216;28;20047;-79
2021/12/26 18:35:52;;;;;;;16.85;7.45;;;;;;;;;;8464267;28;20537;-80
2021/12/26 18:39:55;;;;;;;72.22;21.80;;;;;;;;;;8464417;28;20047;-79
2021/12/26 18:44:02;;;;;;;28.95;15.13;;;;;;;;;;8463898;28;20048;-80
2021/12/26 18:48:06;;;;;;;25.90;11.43;;;;;;;;;;8464018;28;20044;-79
2021/12/26 18:52:12;;;;;;;19.88;9.43;;;;;;;;;;8463941;28;20040;-80
2021/12/26 18:56:15;;;;;;;34.85;19.80;;;;;;;;;;8464554;28;20086;-79
2021/12/26 19:00:21;;;;;;;19.30;8.57;;;;;;;;;;8463793;28;20048;-80
2021/12/26 19:04:25;;;;;;;29.45;10.38;;;;;;;;;;8456917;28;20166;-80
2021/12/26 19:08:32;;;;;;;27.55;14.50;;;;;;;;;;8439705;28;20051;-77
2021/12/26 19:12:37;;;;;;;18.20;12.55;;;;;;;;;;8447471;28;20066;-81
2021/12/26 19:16:46;;;;;;;23.75;11.77;;;;;;;;;;8445247;28;20051;-77
2021/12/26 19:20:54;;;;;;;30.48;14.63;;;;;;;;;;8439164;28;20126;-80
2021/12/26 19:24:59;;;;;;;28.70;10.85;;;;;;;;;;8442227;28;20051;-79
2021/12/26 19:29:04;;;;;;;23.95;11.63;;;;;;;;;;8441279;28;20094;-79
2021/12/26 19:33:09;;;;;;;37.75;14.93;;;;;;;;;;8439408;28;20055;-79
2021/12/26 19:37:13;;;;;;;28.15;15.68;;;;;;;;;;8444677;28;20128;-79
2021/12/26 19:41:19;;;;;;;26.20;12.40;;;;;;;;;;8457510;28;20123;-79
2021/12/26 19:45:23;;;;;;;22.83;11.48;;;;;;;;;;8456778;28;20123;-80
2021/12/26 19:49:27;;;;;;;17.33;11.05;;;;;;;;;;8455415;28;20051;-79
2021/12/26 19:53:31;;;;;;;26.92;11.15;;;;;;;;;;8456946;28;20048;-79
2021/12/26 19:57:36;;;;;;;28.38;9.95;;;;;;;;;;8454738;28;20052;-79
2021/12/26 20:01:39;;;;;;;28.92;12.65;;;;;;;;;;8457841;28;20051;-78
2021/12/26 20:05:45;;;;;;;45.60;16.35;;;;;;;;;;8454633;28;20264;-78
2021/12/26 20:09:48;;;;;;;52.40;16.90;;;;;;;;;;8457002;28;20475;-79
2021/12/26 20:13:55;;;;;;;19.58;12.77;;;;;;;;;;8454684;28;20051;-77
2021/12/26 20:17:59;;;;;;;30.73;19.27;;;;;;;;;;8458120;28;20097;-79
2021/12/26 20:22:10;;;;;;;34.88;15.13;;;;;;;;;;8460487;28;20518;-80
2021/12/26 20:26:18;;;;;;;29.50;14.15;;;;;;;;;;8462509;28;20118;-79
2021/12/26 20:30:25;;;;;;;34.75;16.98;;;;;;;;;;8462165;28;20052;-78
2021/12/26 20:34:28;;;;;;;38.05;17.15;;;;;;;;;;8460436;28;20039;-78
2021/12/26 20:38:36;;;;;;;31.85;16.83;;;;;;;;;;8443295;28;20058;-79
2021/12/26 20:42:40;;;;;;;34.95;18.20;;;;;;;;;;8444544;28;20040;-78
2021/12/26 20:46:49;;;;;;;45.72;20.25;;;;;;;;;;8437997;28;20499;-79
2021/12/26 20:50:54;;;;;;;38.08;21.45;;;;;;;;;;8442318;28;20044;-79
2021/12/26 20:54:57;;;;;;;71.00;17.63;;;;;;;;;;8462676;28;20053;-78
2021/12/26 20:59:02;;;;;;;24.27;17.00;;;;;;;;;;8440474;28;20491;-79
2021/12/26 21:03:06;;;;;;;24.55;16.83;;;;;;;;;;8467486;28;20051;-78
2021/12/26 21:07:15;;;;;;;18.40;11.05;;;;;;;;;;8467086;28;20071;-79
2021/12/26 21:11:28;;;;;;;24.83;13.70;;;;;;;;;;8466924;28;20047;-80
2021/12/26 21:15:32;;;;;;;25.80;17.55;;;;;;;;;;8464113;28;20044;-77
2021/12/26 21:19:40;;;;;;;49.53;17.17;;;;;;;;;;8451381;28;20048;-76
2021/12/26 21:23:45;;;;;;;39.80;16.02;;;;;;;;;;8450953;28;20040;-81
2021/12/26 21:27:50;;;;;;;49.42;20.27;;;;;;;;;;8443613;28;20046;-80
2021/12/26 21:31:57;;;;;;;35.88;20.25;;;;;;;;;;8418596;28;20052;-78
2021/12/26 21:36:08;;;;;;;35.55;19.38;;;;;;;;;;8430063;28;20048;-80
2021/12/26 21:40:12;;;;;;;36.35;15.00;;;;;;;;;;8430542;28;20051;-79
2021/12/26 21:44:16;;;;;;;32.50;14.98;;;;;;;;;;8456396;28;20051;-80
2021/12/26 21:48:19;;;;;;;25.27;12.13;;;;;;;;;;8465705;28;20043;-79
2021/12/26 21:52:25;;;;;;;39.13;21.02;;;;;;;;;;8465471;28;20051;-78
2021/12/26 21:56:28;;;;;;;48.30;16.92;;;;;;;;;;8446501;28;20052;-81
2021/12/26 22:00:37;;;;;;;34.00;18.20;;;;;;;;;;8431982;28;20055;-78
2021/12/26 22:04:42;;;;;;;51.43;23.67;;;;;;;;;;8431972;28;20056;-80
2021/12/26 22:08:47;;;;;;;31.92;21.23;;;;;;;;;;8432280;28;20101;-77
2021/12/26 22:12:51;;;;;;;75.90;28.38;;;;;;;;;;8432076;28;20135;-79
2021/12/26 22:16:57;;;;;;;38.88;23.52;;;;;;;;;;8432030;28;20100;-78
2021/12/26 22:21:00;;;;;;;41.10;23.65;;;;;;;;;;8447793;28;20044;-78
2021/12/26 22:25:07;;;;;;;24.02;12.27;;;;;;;;;;8438449;28;20107;-78
2021/12/26 22:29:10;;;;;;;14.50;11.00;;;;;;;;;;8460618;28;20126;-78
2021/12/26 22:33:13;;;;;;;30.15;13.98;;;;;;;;;;8465032;28;20050;-77
2021/12/26 22:37:18;;;;;;;15.52;12.85;;;;;;;;;;8465215;28;20040;-79
2021/12/26 22:41:23;;;;;;;11.80;8.52;;;;;;;;;;8465200;28;20040;-78
2021/12/26 22:45:26;;;;;;;22.92;13.32;;;;;;;;;;8453373;28;20048;-78
2021/12/26 22:49:31;;;;;;;19.75;12.00;;;;;;;;;;8432245;28;20452;-77
2021/12/26 22:53:34;;;;;;;20.15;13.68;;;;;;;;;;8439534;28;20141;-78
2021/12/26 22:57:39;;;;;;;23.80;13.55;;;;;;;;;;8458773;28;20073;-78
2021/12/26 23:01:43;;;;;;;11.55;8.40;;;;;;;;;;8454610;28;20040;-79
2021/12/26 23:05:46;;;;;;;21.13;13.20;;;;;;;;;;8460133;28;20130;-79
2021/12/26 23:09:49;;;;;;;39.28;20.48;;;;;;;;;;8442642;28;20052;-77
2021/12/26 23:13:53;;;;;;;36.85;19.92;;;;;;;;;;8464276;28;20396;-77
2021/12/26 23:17:56;;;;;;;18.33;13.43;;;;;;;;;;8464025;28;20624;-77
2021/12/26 23:22:00;;;;;;;36.55;16.52;;;;;;;;;;8457194;28;20566;-77
2021/12/26 23:26:03;;;;;;;23.05;14.85;;;;;;;;;;8461977;28;20040;-79
2021/12/26 23:30:09;;;;;;;13.55;11.88;;;;;;;;;;8448104;28;20050;-78
2021/12/26 23:34:12;;;;;;;13.60;9.50;;;;;;;;;;8431349;28;20048;-79
2021/12/26 23:38:15;;;;;;;26.63;11.77;;;;;;;;;;8443498;28;20072;-79
2021/12/26 23:42:18;;;;;;;10.70;8.15;;;;;;;;;;8438769;28;20082;-78
2021/12/26 23:46:26;;;;;;;32.35;11.13;;;;;;;;;;8460138;28;20186;-79
2021/12/26 23:50:29;;;;;;;25.90;9.10;;;;;;;;;;8441549;28;20119;-81
2021/12/26 23:54:32;;;;;;;15.05;8.90;;;;;;;;;;8431160;28;20131;-78
2021/12/26 23:58:35;;;;;;;26.10;12.20;;;;;;;;;;8452229;28;20052;-78
